createdAt,value
2023-05-05T00:01:50.759Z,100850.84
2023-05-05T00:04:53.289Z,100852.84
2023-05-05T00:07:58.505Z,100853.19
2023-05-05T00:11:01.045Z,100853.28
2023-05-05T00:14:11.260Z,100854.50
2023-05-05T00:17:13.698Z,100854.84
2023-05-05T00:20:15.961Z,100853.44
2023-05-05T00:23:21.656Z,100860.97
2023-05-05T00:26:24.092Z,100851.03
2023-05-05T00:29:30.608Z,100852.22
2023-05-05T00:32:35.187Z,100851.97
2023-05-05T00:35:39.742Z,100844.72
2023-05-05T00:38:44.424Z,100842.22
2023-05-05T00:41:46.693Z,100839.72
2023-05-05T00:44:51.369Z,100842.31
2023-05-05T00:48:01.433Z,100846.50
2023-05-05T00:51:09.175Z,100840.56
2023-05-05T00:54:11.676Z,100835.41
2023-05-05T00:57:16.680Z,100833.16
2023-05-05T01:00:19.060Z,100840.31
2023-05-05T01:03:24.040Z,100839.47
2023-05-05T01:06:57.329Z,100836.59
2023-05-05T01:10:19.860Z,100832.63
2023-05-05T01:13:26.558Z,100835.25
2023-05-05T01:16:36.155Z,100844.56
2023-05-05T01:19:50.660Z,100829.28
2023-05-05T01:23:06.833Z,100830.81
2023-05-05T01:26:37.054Z,100832.44
2023-05-05T01:30:03.440Z,100829.34
2023-05-05T01:33:09.415Z,100829.31
2023-05-05T01:36:22.764Z,100833.72
2023-05-05T01:39:31.160Z,100835.38
2023-05-05T01:42:40.945Z,100832.41
2023-05-05T01:45:45.320Z,100826.28
2023-05-05T01:48:53.791Z,100836.13
2023-05-05T01:51:57.773Z,100827.53
2023-05-05T01:55:04.247Z,100841.03
2023-05-05T01:58:12.009Z,100828.00
2023-05-05T02:01:15.483Z,100825.88
2023-05-05T02:04:24.295Z,100830.34
2023-05-05T02:07:36.149Z,100831.19
2023-05-05T02:10:42.927Z,100826.56
2023-05-05T02:13:46.790Z,100829.06
2023-05-05T02:16:54.526Z,100819.78
2023-05-05T02:20:01.128Z,100818.13
2023-05-05T02:23:05.805Z,100824.19
2023-05-05T02:26:14.062Z,100830.72
2023-05-05T02:29:28.534Z,100827.38
2023-05-05T02:32:35.152Z,100822.03
2023-05-05T02:35:45.861Z,100827.06
2023-05-05T02:38:56.281Z,100818.25
2023-05-05T02:42:05.413Z,100823.28
2023-05-05T02:45:12.210Z,100826.31
2023-05-05T02:48:17.414Z,100825.25
2023-05-05T02:51:19.710Z,100822.75
2023-05-05T02:54:22.371Z,100824.34
2023-05-05T02:57:53.666Z,100819.09
2023-05-05T03:01:24.889Z,100812.06
2023-05-05T03:04:38.051Z,100819.72
2023-05-05T03:07:56.740Z,100824.72
2023-05-05T03:11:06.742Z,100827.09
2023-05-05T03:14:18.497Z,100815.41
2023-05-05T03:17:24.691Z,100832.72
2023-05-05T03:20:28.819Z,100827.41
2023-05-05T03:23:33.912Z,100827.97
2023-05-05T03:26:38.822Z,100825.03
2023-05-05T03:29:44.930Z,100829.66
2023-05-05T03:32:50.980Z,100836.34
2023-05-05T03:35:53.434Z,100825.19
2023-05-05T03:38:58.097Z,100824.13
2023-05-05T03:42:04.510Z,100828.81
2023-05-05T03:45:08.958Z,100816.31
2023-05-05T03:48:11.984Z,100831.19
2023-05-05T03:51:16.448Z,100831.03
2023-05-05T03:54:19.169Z,100829.06
2023-05-05T03:57:23.912Z,100833.31
2023-05-05T04:00:27.596Z,100843.28
2023-05-05T04:03:30.240Z,100829.91
2023-05-05T04:06:34.942Z,100844.50
2023-05-05T04:09:44.357Z,100830.59
2023-05-05T04:12:47.527Z,100830.25
2023-05-05T04:15:52.058Z,100852.63
2023-05-05T04:18:55.631Z,100848.38
2023-05-05T04:22:00.503Z,100834.84
2023-05-05T04:25:08.019Z,100845.13
2023-05-05T04:28:16.054Z,100841.78
2023-05-05T04:31:18.510Z,100835.84
2023-05-05T04:34:25.915Z,100837.06
2023-05-05T04:37:28.430Z,100847.22
2023-05-05T04:40:38.102Z,100854.50
2023-05-05T04:43:41.452Z,100852.94
2023-05-05T04:46:46.122Z,100850.22
2023-05-05T04:49:49.685Z,100859.31
2023-05-05T04:52:54.447Z,100864.34
2023-05-05T04:56:03.468Z,100867.00
2023-05-05T04:59:10.638Z,100863.31
2023-05-05T05:02:15.438Z,100858.47
2023-05-05T05:05:23.253Z,100869.19
2023-05-05T05:08:28.040Z,100877.66
2023-05-05T05:11:30.344Z,100868.72
2023-05-05T05:14:39.687Z,100875.25
2023-05-05T05:17:42.427Z,100872.97
2023-05-05T05:20:47.511Z,100875.56
2023-05-05T05:23:50.795Z,100871.44
2023-05-05T05:26:53.760Z,100872.25
2023-05-05T05:30:01.241Z,100876.78
2023-05-05T05:33:04.974Z,100876.94
2023-05-05T05:36:09.865Z,100884.00
2023-05-05T05:39:14.460Z,100877.53
2023-05-05T05:42:17.191Z,100885.25
2023-05-05T05:45:22.370Z,100891.53
2023-05-05T05:48:28.530Z,100877.09
2023-05-05T05:51:31.886Z,100882.41
2023-05-05T05:54:39.594Z,100890.44
2023-05-05T05:57:43.312Z,100891.44
2023-05-05T06:00:49.309Z,100883.69
2023-05-05T06:03:54.225Z,100892.38
2023-05-05T06:06:57.308Z,100897.06
2023-05-05T06:10:04.862Z,100870.13
2023-05-05T06:13:16.460Z,100893.38
2023-05-05T06:16:24.459Z,100888.13
2023-05-05T06:19:27.118Z,100878.34
2023-05-05T06:22:30.005Z,100890.09
2023-05-05T06:25:36.178Z,100886.63
2023-05-05T06:28:41.382Z,100891.47
2023-05-05T06:31:43.601Z,100882.09
2023-05-05T06:34:48.369Z,100873.72
2023-05-05T06:37:53.148Z,100862.56
2023-05-05T06:40:55.527Z,100874.50
2023-05-05T06:44:00.265Z,100860.25
2023-05-05T06:47:09.999Z,100868.19
2023-05-05T06:50:14.523Z,100875.25
2023-05-05T06:53:16.806Z,100867.59
2023-05-05T06:56:19.410Z,100873.22
2023-05-05T06:59:26.812Z,100869.81
2023-05-05T07:02:29.080Z,100877.03
2023-05-05T07:05:36.753Z,100870.09
2023-05-05T07:08:38.994Z,100875.28
2023-05-05T07:11:43.695Z,100867.47
2023-05-05T07:14:48.847Z,100865.66
2023-05-05T07:17:51.187Z,100865.16
2023-05-05T07:20:55.890Z,100852.16
2023-05-05T07:23:58.171Z,100859.47
2023-05-05T07:27:06.307Z,100852.81
2023-05-05T07:30:13.230Z,100857.75
2023-05-05T07:33:21.297Z,100853.84
2023-05-05T07:36:23.646Z,100854.91
2023-05-05T07:39:28.328Z,100857.41
2023-05-05T07:42:30.724Z,100860.06
2023-05-05T07:45:33.082Z,100848.22
2023-05-05T07:48:39.110Z,100859.16
2023-05-05T07:51:42.091Z,100856.41
2023-05-05T07:54:48.039Z,100847.03
2023-05-05T07:57:50.318Z,100857.28
2023-05-05T08:00:57.307Z,100862.97
2023-05-05T08:04:02.049Z,100847.47
2023-05-05T08:07:07.277Z,100859.47
2023-05-05T08:10:12.935Z,100853.31
2023-05-05T08:13:17.469Z,100849.19
2023-05-05T08:16:22.347Z,100859.22
2023-05-05T08:19:29.533Z,100844.16
2023-05-05T08:22:35.362Z,100834.81
2023-05-05T08:25:37.567Z,100840.97
2023-05-05T08:28:40.054Z,100838.81
2023-05-05T08:31:42.387Z,100845.44
2023-05-05T08:34:46.881Z,100839.34
2023-05-05T08:37:54.291Z,100845.25
2023-05-05T08:41:00.781Z,100837.84
2023-05-05T08:44:07.549Z,100844.22
2023-05-05T08:47:20.601Z,100837.03
2023-05-05T08:50:26.574Z,100834.69
2023-05-05T08:53:45.885Z,100836.19
2023-05-05T08:56:51.675Z,100829.88
2023-05-05T08:59:58.073Z,100832.78
2023-05-05T09:03:01.566Z,100825.63
2023-05-05T09:06:04.656Z,100830.41
2023-05-05T09:09:08.227Z,100815.19
2023-05-05T09:12:10.523Z,100820.34
2023-05-05T09:15:15.006Z,100812.31
2023-05-05T09:18:20.204Z,100798.13
2023-05-05T09:21:30.597Z,100810.66
2023-05-05T09:24:35.284Z,100800.28
2023-05-05T09:27:55.629Z,100795.03
2023-05-05T09:31:12.990Z,100799.81
2023-05-05T09:34:16.682Z,100802.22
2023-05-05T09:37:30.326Z,100792.31
2023-05-05T09:40:48.807Z,100787.69
2023-05-05T09:43:52.496Z,100781.28
2023-05-05T09:46:58.276Z,100776.03
2023-05-05T09:50:06.707Z,100780.56
2023-05-05T09:53:11.922Z,100793.13
2023-05-05T09:56:14.221Z,100788.75
2023-05-05T09:59:21.797Z,100780.16
2023-05-05T10:02:39.184Z,100774.78
2023-05-05T10:05:50.429Z,100775.69
2023-05-05T10:09:01.556Z,100774.63
2023-05-05T10:12:04.859Z,100771.31
2023-05-05T10:15:08.664Z,100771.16
2023-05-05T10:18:14.496Z,100761.38
2023-05-05T10:21:24.554Z,100770.16
2023-05-05T10:24:42.040Z,100771.69
2023-05-05T10:27:55.147Z,100769.09
2023-05-05T10:31:00.920Z,100773.72
2023-05-05T10:34:06.076Z,100771.88
2023-05-05T10:37:09.035Z,100762.88
2023-05-05T10:40:17.817Z,100757.19
2023-05-05T10:43:20.875Z,100751.09
2023-05-05T10:46:26.485Z,100737.59
2023-05-05T10:50:09.129Z,100740.69
2023-05-05T10:53:28.692Z,100743.47
2023-05-05T10:56:36.187Z,100731.59
2023-05-05T10:59:38.848Z,100732.41
2023-05-05T11:02:41.463Z,100722.28
2023-05-05T11:06:02.617Z,100718.63
2023-05-05T11:09:27.984Z,100716.13
2023-05-05T11:12:54.338Z,100723.03
2023-05-05T11:16:00.921Z,100719.81
2023-05-05T11:19:41.714Z,100713.63
2023-05-05T11:23:02.513Z,100721.25
2023-05-05T11:26:07.227Z,100707.25
2023-05-05T11:29:09.707Z,100704.38
2023-05-05T11:32:18.340Z,100698.13
2023-05-05T11:35:56.200Z,100690.88
2023-05-05T11:39:09.665Z,100691.03
2023-05-05T11:42:24.299Z,100689.28
2023-05-05T11:45:29.418Z,100695.53
2023-05-05T11:48:47.202Z,100684.47
2023-05-05T11:51:59.609Z,100678.66
2023-05-05T11:55:02.114Z,100683.44
2023-05-05T11:58:18.141Z,100671.53
2023-05-05T12:01:24.909Z,100670.88
2023-05-05T12:04:27.458Z,100667.66
2023-05-05T12:07:33.558Z,100662.53
2023-05-05T12:10:35.861Z,100668.31
2023-05-05T12:13:38.298Z,100665.50
2023-05-05T12:16:40.802Z,100667.28
2023-05-05T12:19:48.070Z,100651.72
2023-05-05T12:22:50.701Z,100655.81
2023-05-05T12:25:53.357Z,100650.41
2023-05-05T12:29:01.638Z,100637.81
2023-05-05T12:32:04.355Z,100660.84
2023-05-05T12:35:10.122Z,100637.13
2023-05-05T12:38:16.105Z,100642.59
2023-05-05T12:41:25.506Z,100640.94
2023-05-05T12:44:35.920Z,100642.13
2023-05-05T12:47:38.472Z,100629.22
2023-05-05T12:50:40.896Z,100638.97
2023-05-05T12:53:44.041Z,100629.44
2023-05-05T12:56:47.593Z,100635.28
2023-05-05T12:59:54.809Z,100623.00
2023-05-05T13:02:59.295Z,100625.09
2023-05-05T13:06:19.700Z,100625.09
2023-05-05T13:09:30.464Z,100609.09
2023-05-05T13:12:32.761Z,100609.22
2023-05-05T13:15:35.087Z,100602.66
2023-05-05T13:18:47.685Z,100606.59
2023-05-05T13:21:50.031Z,100594.19
2023-05-05T13:24:59.370Z,100587.63
2023-05-05T13:28:04.399Z,100581.00
2023-05-05T13:31:09.250Z,100575.34
2023-05-05T13:34:12.174Z,100589.19
2023-05-05T13:37:14.548Z,100580.97
2023-05-05T13:40:19.100Z,100571.97
2023-05-05T13:43:21.323Z,100577.13
2023-05-05T13:46:26.030Z,100571.16
2023-05-05T13:49:28.329Z,100565.34
2023-05-05T13:52:33.401Z,100569.81
2023-05-05T13:55:38.412Z,100575.13
2023-05-05T13:58:45.213Z,100570.63
2023-05-05T14:01:52.306Z,100562.81
2023-05-05T14:04:56.981Z,100565.88
2023-05-05T14:08:01.498Z,100569.72
2023-05-05T14:11:06.475Z,100567.25
2023-05-05T14:14:13.464Z,100561.75
2023-05-05T14:17:20.899Z,100548.31
2023-05-05T14:20:28.163Z,100558.22
2023-05-05T14:23:33.651Z,100550.19
2023-05-05T14:26:35.907Z,100545.78
2023-05-05T14:29:38.286Z,100548.91
2023-05-05T14:32:45.550Z,100540.75
2023-05-05T14:35:49.474Z,100538.50
2023-05-05T14:38:54.175Z,100545.59
2023-05-05T14:42:01.572Z,100540.66
2023-05-05T14:45:07.083Z,100543.06
2023-05-05T14:48:09.910Z,100531.63
2023-05-05T14:51:18.500Z,100529.78
2023-05-05T14:54:28.255Z,100532.94
2023-05-05T14:57:31.473Z,100534.56
2023-05-05T15:00:33.871Z,100526.16
2023-05-05T15:03:36.382Z,100523.88
2023-05-05T15:06:38.772Z,100513.59
2023-05-05T15:09:43.504Z,100536.41
2023-05-05T15:12:48.617Z,100519.38
2023-05-05T15:15:51.491Z,100527.00
2023-05-05T15:18:53.844Z,100532.75
2023-05-05T15:21:59.173Z,100526.03
2023-05-05T15:25:10.939Z,100528.69
2023-05-05T15:28:15.843Z,100526.75
2023-05-05T15:31:20.384Z,100516.25
2023-05-05T15:34:24.981Z,100522.25
2023-05-05T15:37:32.169Z,100522.25
2023-05-05T15:40:34.469Z,100523.88
2023-05-05T15:43:41.482Z,100517.44
2023-05-05T15:46:43.757Z,100514.84
2023-05-05T15:49:46.280Z,100509.91
2023-05-05T15:52:50.073Z,100505.75
2023-05-05T15:55:54.812Z,100510.19
2023-05-05T15:58:58.420Z,100516.94
2023-05-05T16:02:00.756Z,100506.00
2023-05-05T16:05:05.494Z,100511.63
2023-05-05T16:08:10.288Z,100505.59
2023-05-05T16:11:14.540Z,100508.28
2023-05-05T16:14:19.282Z,100494.34
2023-05-05T16:17:25.382Z,100500.22
2023-05-05T16:20:29.742Z,100491.88
2023-05-05T16:23:32.012Z,100504.34
2023-05-05T16:26:35.920Z,100495.78
2023-05-05T16:29:38.277Z,100505.25
2023-05-05T16:32:45.166Z,100497.44
2023-05-05T16:35:47.619Z,100498.25
2023-05-05T16:38:52.341Z,100492.25
2023-05-05T16:41:54.584Z,100488.94
2023-05-05T16:45:04.156Z,100506.19
2023-05-05T16:48:09.427Z,100499.06
2023-05-05T16:51:11.753Z,100500.88
2023-05-05T16:54:21.250Z,100500.75
2023-05-05T16:57:23.787Z,100495.56
2023-05-05T17:00:30.971Z,100492.25
2023-05-05T17:03:33.284Z,100492.25
2023-05-05T17:06:35.577Z,100500.56
2023-05-05T17:09:37.883Z,100502.31
2023-05-05T17:12:40.499Z,100495.84
2023-05-05T17:15:45.094Z,100498.16
2023-05-05T17:18:47.908Z,100472.94
2023-05-05T17:21:57.317Z,100499.53
2023-05-05T17:24:59.674Z,100496.78
2023-05-05T17:28:05.445Z,100496.31
2023-05-05T17:31:10.431Z,100499.16
2023-05-05T17:34:15.955Z,100486.19
2023-05-05T17:37:20.442Z,100500.91
2023-05-05T17:40:22.859Z,100508.72
2023-05-05T17:43:29.762Z,100502.69
2023-05-05T17:46:34.563Z,100508.25
2023-05-05T17:49:36.892Z,100509.34
2023-05-05T17:52:45.070Z,100514.97
2023-05-05T17:55:49.904Z,100499.00
2023-05-05T17:58:56.971Z,100468.81
2023-05-05T18:02:03.939Z,100495.84
2023-05-05T18:05:06.477Z,100513.69
2023-05-05T18:08:08.983Z,100510.16
2023-05-05T18:11:23.743Z,100505.00
2023-05-05T18:14:28.338Z,100508.41
2023-05-05T18:17:33.888Z,100518.38
2023-05-05T18:20:36.356Z,100499.91
2023-05-05T18:23:39.644Z,100514.59
2023-05-05T18:26:44.166Z,100528.72
2023-05-05T18:29:46.403Z,100533.16
2023-05-05T18:32:51.166Z,100529.06
2023-05-05T18:35:53.585Z,100525.78
2023-05-05T18:38:58.448Z,100538.81
2023-05-05T18:42:00.922Z,100529.69
2023-05-05T18:45:07.897Z,100536.91
2023-05-05T18:48:10.380Z,100536.34
2023-05-05T18:51:15.061Z,100539.72
2023-05-05T18:54:17.451Z,100535.56
2023-05-05T18:57:19.677Z,100528.16
2023-05-05T19:00:24.557Z,100533.97
2023-05-05T19:03:26.833Z,100546.69
2023-05-05T19:06:29.271Z,100553.63
2023-05-05T19:09:33.747Z,100550.06
2023-05-05T19:12:40.819Z,100557.00
2023-05-05T19:15:45.639Z,100567.81
2023-05-05T19:18:47.987Z,100561.47
2023-05-05T19:21:50.364Z,100549.34
2023-05-05T19:24:52.735Z,100553.19
2023-05-05T19:27:57.321Z,100543.53
2023-05-05T19:31:01.866Z,100540.75
2023-05-05T19:34:05.437Z,100552.66
2023-05-05T19:37:07.745Z,100549.91
2023-05-05T19:40:13.776Z,100543.53
2023-05-05T19:43:18.820Z,100562.59
2023-05-05T19:46:23.316Z,100548.78
2023-05-05T19:49:25.590Z,100561.50
2023-05-05T19:52:29.655Z,100564.81
2023-05-05T19:55:33.148Z,100553.75
2023-05-05T19:59:02.278Z,100552.63
2023-05-05T20:02:06.830Z,100557.81
2023-05-05T20:05:13.996Z,100548.41
2023-05-05T20:08:19.141Z,100556.13
2023-05-05T20:11:25.116Z,100552.53
2023-05-05T20:14:27.532Z,100556.91
2023-05-05T20:17:29.977Z,100547.00
2023-05-05T20:20:34.720Z,100542.84
2023-05-05T20:23:37.585Z,100552.72
2023-05-05T20:26:44.900Z,100537.50
2023-05-05T20:29:49.594Z,100544.16
2023-05-05T20:32:51.916Z,100545.25
2023-05-05T20:35:54.322Z,100550.50
2023-05-05T20:38:56.631Z,100549.06
2023-05-05T20:41:59.076Z,100530.25
2023-05-05T20:45:07.271Z,100555.06
2023-05-05T20:48:12.271Z,100547.00
2023-05-05T20:51:17.227Z,100552.44
2023-05-05T20:54:24.228Z,100535.25
2023-05-05T20:57:32.070Z,100553.53
2023-05-05T21:00:39.364Z,100551.84
2023-05-05T21:03:43.891Z,100551.31
2023-05-05T21:06:49.288Z,100544.34
2023-05-05T21:09:51.490Z,100546.78
2023-05-05T21:12:53.845Z,100547.00
2023-05-05T21:15:56.110Z,100537.56
2023-05-05T21:19:00.581Z,100538.63
2023-05-05T21:22:02.826Z,100546.88
2023-05-05T21:25:16.575Z,100530.34
2023-05-05T21:28:18.822Z,100530.03
2023-05-05T21:31:23.721Z,100533.38
2023-05-05T21:34:26.165Z,100535.84
2023-05-05T21:37:31.196Z,100533.59
2023-05-05T21:40:33.448Z,100523.03
2023-05-05T21:43:35.831Z,100530.13
2023-05-05T21:46:38.110Z,100527.09
2023-05-05T21:49:40.419Z,100511.50
2023-05-05T21:52:47.650Z,100520.16
2023-05-05T21:55:55.206Z,100514.66
2023-05-05T21:58:59.943Z,100500.53
2023-05-05T22:02:02.309Z,100512.03
2023-05-05T22:05:10.583Z,100503.78
2023-05-05T22:08:17.612Z,100509.03
2023-05-05T22:11:19.892Z,100500.53
2023-05-05T22:14:24.343Z,100515.69
2023-05-05T22:17:26.704Z,100514.78
2023-05-05T22:20:31.305Z,100510.03
2023-05-05T22:23:33.614Z,100507.81
2023-05-05T22:26:43.284Z,100520.50
2023-05-05T22:29:48.835Z,100513.34
2023-05-05T22:32:51.147Z,100520.72
2023-05-05T22:35:56.154Z,100515.44
2023-05-05T22:39:01.018Z,100528.34
2023-05-05T22:42:03.860Z,100536.31
2023-05-05T22:45:06.891Z,100533.53
2023-05-05T22:48:09.388Z,100533.16
2023-05-05T22:51:11.727Z,100531.03
2023-05-05T22:54:14.105Z,100522.38
2023-05-05T22:57:16.350Z,100513.25
2023-05-05T23:00:20.954Z,100532.03
2023-05-05T23:03:25.473Z,100544.16
2023-05-05T23:06:28.575Z,100547.84
2023-05-05T23:09:35.772Z,100534.06
2023-05-05T23:12:38.166Z,100531.19
2023-05-05T23:15:43.640Z,100531.16
2023-05-05T23:18:48.107Z,100523.47
2023-05-05T23:21:53.798Z,100529.41
2023-05-05T23:24:56.173Z,100524.50
2023-05-05T23:27:58.545Z,100519.66
2023-05-05T23:31:01.122Z,100526.81
2023-05-05T23:34:03.421Z,100527.53
2023-05-05T23:37:08.097Z,100514.97
2023-05-05T23:40:12.805Z,100513.81
2023-05-05T23:43:15.048Z,100525.59
2023-05-05T23:46:22.701Z,100515.75
2023-05-05T23:49:26.378Z,100512.66
2023-05-05T23:52:29.804Z,100517.16
2023-05-05T23:55:34.415Z,100510.66
2023-05-05T23:58:36.624Z,100528.91
